Time;durP1;ratioP1;P1;durP2;ratioP2;P2;SDS_P1;SDS_P2;PMS_P1;PMS_P2;Temp;Humidity;BMP_temperature;BMP_pressure;BME280_temperature;BME280_humidity;BME280_pressure;Samples;Min_cycle;Max_cycle;Signal;HPM_P1;HPM_P2
2023/04/12 00:01:45;;;;;;;6.37;1.40;;;;;;;7.12;100.00;100400.16;4981963;28;20042;-89
2023/04/12 00:04:13;;;;;;;9.32;1.63;;;;;;;7.11;100.00;100382.31;4981379;28;20053;-88
2023/04/12 00:06:39;;;;;;;7.70;1.75;;;;;;;7.03;100.00;100377.94;4997399;28;20041;-89
2023/04/12 00:09:04;;;;;;;4.67;1.10;;;;;;;7.04;100.00;100371.47;4981540;28;20042;-89
2023/04/12 00:11:30;;;;;;;12.85;1.40;;;;;;;7.03;100.00;100367.13;4996999;28;20045;-89
2023/04/12 00:13:56;;;;;;;7.45;1.17;;;;;;;7.02;100.00;100357.38;4997728;28;20048;-87
2023/04/12 00:16:21;;;;;;;9.38;1.00;;;;;;;7.01;100.00;100353.00;4965501;28;20046;-88
2023/04/12 00:18:47;;;;;;;5.20;1.60;;;;;;;6.97;100.00;100343.69;4980738;28;20107;-88
2023/04/12 00:21:16;;;;;;;5.95;1.08;;;;;;;6.93;100.00;100353.22;4997155;28;20025;-88
2023/04/12 00:23:43;;;;;;;9.52;1.20;;;;;;;6.91;100.00;100339.06;5014771;28;20080;-88
2023/04/12 00:26:09;;;;;;;8.38;2.00;;;;;;;6.88;100.00;100328.69;4997217;28;20455;-88
2023/04/12 00:28:34;;;;;;;8.77;0.90;;;;;;;6.84;100.00;100312.94;4997263;28;20112;-88
2023/04/12 00:30:59;;;;;;;6.22;1.20;;;;;;;6.85;100.00;100308.38;4980678;28;20192;-88
2023/04/12 00:33:25;;;;;;;5.40;1.13;;;;;;;6.87;100.00;100298.22;5014340;28;20101;-88
2023/04/12 00:35:50;;;;;;;11.07;1.47;;;;;;;6.88;100.00;100296.34;4980785;28;20038;-88
2023/04/12 00:38:16;;;;;;;4.90;0.80;;;;;;;6.84;100.00;100294.06;4997296;28;20068;-88
2023/04/12 00:40:42;;;;;;;5.05;1.00;;;;;;;6.81;100.00;100272.91;4964963;28;20034;-88
2023/04/12 00:43:14;;;;;;;7.20;1.10;;;;;;;6.83;100.00;100268.13;4996783;28;20026;-88
2023/04/12 00:45:40;;;;;;;10.40;1.45;;;;;;;6.79;100.00;100266.88;5013255;28;20030;-88
2023/04/12 00:48:06;;;;;;;6.50;1.38;;;;;;;6.82;100.00;100263.78;5014128;28;20108;-88
2023/04/12 00:50:33;;;;;;;3.55;0.93;;;;;;;6.79;100.00;100249.84;4980398;28;20141;-88
2023/04/12 00:52:59;;;;;;;4.38;1.05;;;;;;;6.80;100.00;100252.34;4980503;28;20073;-88
2023/04/12 00:55:25;;;;;;;5.27;0.97;;;;;;;6.81;100.00;100243.22;5013934;28;20065;-88
2023/04/12 00:57:50;;;;;;;4.45;1.10;;;;;;;6.83;100.00;100232.25;4999221;28;20097;-88
2023/04/12 01:00:16;;;;;;;4.07;1.13;;;;;;;6.79;100.00;100210.25;4960780;28;20399;-88
2023/04/12 01:02:49;;;;;;;5.77;1.20;;;;;;;6.80;100.00;100214.59;4977142;28;20030;-88
2023/04/12 01:05:21;;;;;;;6.57;1.10;;;;;;;6.80;100.00;100201.13;4977402;28;20030;-88
2023/04/12 01:07:53;;;;;;;10.48;1.58;;;;;;;6.82;100.00;100195.50;4976964;28;20027;-88
2023/04/12 01:10:30;;;;;;;5.60;0.98;;;;;;;6.83;100.00;100195.31;4994719;28;20026;-88
2023/04/12 01:12:55;;;;;;;6.32;1.35;;;;;;;6.83;100.00;100183.69;4993462;28;20045;-87
2023/04/12 01:15:23;;;;;;;8.73;1.50;;;;;;;6.79;100.00;100175.22;5009616;28;20390;-88
2023/04/12 01:18:18;;;;;;;6.07;1.03;;;;;;;6.80;100.00;100159.84;4961109;28;20026;-88
2023/04/12 01:20:52;;;;;;;5.80;1.10;;;;;;;6.78;100.00;100153.84;4977721;28;20031;-88
2023/04/12 01:23:42;;;;;;;5.13;0.95;;;;;;;6.79;100.00;100148.25;4976907;28;20129;-88
2023/04/12 01:26:33;;;;;;;7.50;1.08;;;;;;;6.77;100.00;100136.00;4977774;28;20037;-88
2023/04/12 01:29:03;;;;;;;6.82;1.38;;;;;;;6.78;100.00;100122.31;5003661;28;20057;-88
2023/04/12 01:31:30;;;;;;;7.37;1.30;;;;;;;6.80;100.00;100117.53;4977082;28;20030;-88
2023/04/12 01:33:58;;;;;;;6.53;1.23;;;;;;;6.84;100.00;100118.78;4976737;28;20065;-87
2023/04/12 01:36:26;;;;;;;4.93;1.50;;;;;;;6.85;100.00;100108.84;4994190;28;20030;-87
2023/04/12 01:38:53;;;;;;;4.97;1.40;;;;;;;6.83;100.00;100100.94;4976675;28;20026;-88
2023/04/12 01:41:19;;;;;;;8.75;1.65;;;;;;;6.86;100.00;100091.59;4992511;28;20034;-88
2023/04/12 01:43:46;;;;;;;4.87;1.67;;;;;;;6.86;100.00;100097.00;4977496;28;20068;-87
2023/04/12 01:46:15;;;;;;;5.55;1.40;;;;;;;6.83;100.00;100083.94;4960561;28;20512;-88
2023/04/12 01:48:47;;;;;;;5.13;1.33;;;;;;;6.83;100.00;100078.53;4992818;28;20509;-88
2023/04/12 01:51:15;;;;;;;6.32;1.40;;;;;;;6.83;100.00;100081.22;4976677;28;20018;-88
2023/04/12 01:53:58;;;;;;;7.03;1.35;;;;;;;6.81;100.00;100081.44;4992554;28;20042;-89
2023/04/12 01:56:29;;;;;;;6.93;1.30;;;;;;;6.83;100.00;100063.19;4980155;28;20061;-88
2023/04/12 01:58:59;;;;;;;4.75;1.20;;;;;;;6.85;100.00;100060.31;5014332;28;20038;-88
2023/04/12 02:01:27;;;;;;;6.78;1.50;;;;;;;6.90;100.00;100040.78;4996127;28;20167;-88
2023/04/12 02:03:57;;;;;;;10.38;1.30;;;;;;;6.85;100.00;100039.56;4996269;28;20030;-88
2023/04/12 02:06:23;;;;;;;9.43;1.40;;;;;;;6.83;100.00;100033.53;4995940;28;20033;-88
2023/04/12 02:08:49;;;;;;;3.60;1.03;;;;;;;6.85;100.00;100031.47;4995628;28;20092;-88
2023/04/12 02:11:14;;;;;;;5.68;1.00;;;;;;;6.84;100.00;100023.56;4996114;28;20041;-88
2023/04/12 02:13:40;;;;;;;8.80;1.10;;;;;;;6.82;100.00;100028.34;4980023;28;20065;-87
2023/04/12 02:16:09;;;;;;;6.70;1.43;;;;;;;6.75;100.00;100011.38;4997475;28;20532;-87
2023/04/12 02:18:35;;;;;;;5.10;1.30;;;;;;;6.78;100.00;99998.28;5000422;28;20429;-87
2023/04/12 02:21:00;;;;;;;4.87;1.20;;;;;;;6.80;100.00;99988.09;4999453;28;20141;-87
2023/04/12 02:23:26;;;;;;;3.47;1.20;;;;;;;6.83;100.00;99978.78;4999283;28;20368;-87
2023/04/12 02:25:51;;;;;;;4.13;1.00;;;;;;;6.79;100.00;99975.69;4999543;28;20037;-88
2023/04/12 02:28:21;;;;;;;3.90;0.98;;;;;;;6.79;100.00;99977.53;4998907;28;20030;-87
2023/04/12 02:30:52;;;;;;;9.48;1.10;;;;;;;6.75;100.00;99974.44;5016310;28;20088;-87
2023/04/12 02:33:20;;;;;;;6.35;1.30;;;;;;;6.74;100.00;99962.00;4999538;28;20037;-87
2023/04/12 02:35:48;;;;;;;4.53;1.05;;;;;;;6.75;100.00;99954.75;5000180;28;20080;-87
2023/04/12 02:38:15;;;;;;;5.20;1.08;;;;;;;6.76;100.00;99938.38;4999345;28;20113;-87
2023/04/12 02:40:41;;;;;;;7.55;1.27;;;;;;;6.78;100.00;99930.06;4983606;28;20046;-87
2023/04/12 02:43:06;;;;;;;7.05;1.13;;;;;;;6.79;100.00;99929.00;4999079;28;20029;-87
2023/04/12 02:45:32;;;;;;;5.22;0.90;;;;;;;6.79;100.00;99915.53;4999133;28;20366;-87
2023/04/12 02:47:57;;;;;;;6.43;0.93;;;;;;;6.82;100.00;99915.94;5017103;28;20038;-87
2023/04/12 02:50:23;;;;;;;6.30;0.93;;;;;;;6.76;100.00;99913.25;5014934;28;20477;-87
2023/04/12 02:52:48;;;;;;;6.20;1.03;;;;;;;6.75;100.00;99908.91;4998810;28;20034;-87
2023/04/12 02:55:14;;;;;;;6.37;1.00;;;;;;;6.73;100.00;99905.59;5015725;28;20070;-87
2023/04/12 02:57:40;;;;;;;4.00;1.02;;;;;;;6.71;100.00;99892.31;4981998;28;20057;-88
2023/04/12 03:00:10;;;;;;;4.43;0.97;;;;;;;6.70;100.00;99882.56;4982568;28;20425;-87
2023/04/12 03:02:36;;;;;;;2.75;0.80;;;;;;;6.71;100.00;99878.03;5016352;28;20748;-87
2023/04/12 03:05:03;;;;;;;5.57;1.10;;;;;;;6.72;100.00;99874.28;4998812;28;20033;-87
2023/04/12 03:07:32;;;;;;;5.57;1.00;;;;;;;6.70;100.00;99862.88;4982418;28;20443;-87
2023/04/12 03:09:58;;;;;;;1.73;0.77;;;;;;;6.72;100.00;99861.66;4998602;28;20176;-87
2023/04/12 03:12:23;;;;;;;4.93;0.80;;;;;;;6.72;100.00;99855.41;5016151;28;20485;-88
2023/04/12 03:14:49;;;;;;;5.63;0.90;;;;;;;6.74;100.00;99832.59;4998770;28;20034;-87
2023/04/12 03:17:14;;;;;;;5.57;0.80;;;;;;;6.74;100.00;99835.28;4998714;28;20481;-88
2023/04/12 03:19:40;;;;;;;3.93;0.70;;;;;;;6.77;100.00;99831.34;4982522;28;20398;-88
2023/04/12 03:22:08;;;;;;;4.40;0.80;;;;;;;6.74;100.00;99829.91;4982048;28;20475;-88
2023/04/12 03:24:34;;;;;;;3.75;0.90;;;;;;;6.75;100.00;99823.47;4998367;28;20025;-87
2023/04/12 03:27:03;;;;;;;4.33;0.80;;;;;;;6.73;100.00;99839.03;4982275;28;20092;-87
2023/04/12 03:29:30;;;;;;;3.28;0.75;;;;;;;6.74;100.00;99819.13;5015511;28;20033;-87
2023/04/12 03:32:02;;;;;;;3.95;0.60;;;;;;;6.75;100.00;99819.97;4997950;28;20017;-87
2023/04/12 03:34:34;;;;;;;5.38;1.17;;;;;;;6.70;100.00;99815.19;4998539;28;20033;-87
2023/04/12 03:37:02;;;;;;;7.50;0.80;;;;;;;6.67;100.00;99811.06;4982931;28;20034;-87
2023/04/12 03:39:28;;;;;;;2.97;0.87;;;;;;;6.67;100.00;99800.28;5015172;28;20359;-87
2023/04/12 03:41:53;;;;;;;4.20;0.80;;;;;;;6.68;100.00;99807.31;4997962;28;20034;-87
2023/04/12 03:44:20;;;;;;;5.85;0.70;;;;;;;6.68;100.00;99812.72;4997627;28;20038;-87
2023/04/12 03:46:46;;;;;;;3.95;0.60;;;;;;;6.67;100.00;99794.06;5014786;28;20034;-87
2023/04/12 03:49:11;;;;;;;4.18;0.63;;;;;;;6.65;100.00;99786.19;4997733;28;20076;-87
2023/04/12 03:51:41;;;;;;;3.60;0.80;;;;;;;6.68;100.00;99783.06;4998251;28;20420;-87
2023/04/12 03:54:08;;;;;;;1.20;0.60;;;;;;;6.67;100.00;99772.50;4981997;28;20117;-87
2023/04/12 03:56:34;;;;;;;7.43;0.93;;;;;;;6.68;100.00;99783.06;4997065;28;20064;-87
2023/04/12 03:58:59;;;;;;;4.18;0.70;;;;;;;6.64;100.00;99767.53;5014301;28;20037;-87
2023/04/12 04:01:25;;;;;;;4.93;0.70;;;;;;;6.65;100.00;99770.00;4997686;28;20038;-87
2023/04/12 04:03:51;;;;;;;5.30;1.10;;;;;;;6.66;100.00;99754.69;4997460;28;20030;-86
2023/04/12 04:06:16;;;;;;;3.23;0.90;;;;;;;6.66;100.00;99752.00;4997484;28;20120;-86
2023/04/12 04:08:43;;;;;;;4.93;1.00;;;;;;;6.65;100.00;99745.75;4997285;28;20080;-87
2023/04/12 04:11:11;;;;;;;2.40;1.10;;;;;;;6.66;100.00;99747.41;5014685;28;20041;-86
2023/04/12 04:13:36;;;;;;;4.28;0.88;;;;;;;6.65;100.00;99737.66;4997598;28;20057;-86
2023/04/12 04:16:03;;;;;;;3.10;0.83;;;;;;;6.68;100.00;99733.72;4996997;28;20030;-86
2023/04/12 04:18:30;;;;;;;5.32;1.10;;;;;;;6.66;100.00;99731.25;4980883;28;20375;-86
2023/04/12 04:20:55;;;;;;;5.20;0.70;;;;;;;6.66;100.00;99728.53;5014583;28;20061;-86
2023/04/12 04:23:22;;;;;;;3.50;0.70;;;;;;;6.68;100.00;99720.25;5013590;28;20033;-86
2023/04/12 04:25:47;;;;;;;5.95;1.20;;;;;;;6.67;100.00;99719.44;5014412;28;20033;-86
2023/04/12 04:28:14;;;;;;;1.87;0.80;;;;;;;6.66;100.00;99725.03;4997062;28;20359;-87
2023/04/12 04:30:40;;;;;;;3.78;1.00;;;;;;;6.66;100.00;99720.47;5014546;28;20076;-86
2023/04/12 04:33:06;;;;;;;5.50;1.08;;;;;;;6.69;100.00;99713.81;5014856;28;20026;-87
2023/04/12 04:35:32;;;;;;;4.30;0.90;;;;;;;6.69;100.00;99708.44;5014526;28;20041;-86
2023/04/12 04:37:59;;;;;;;4.85;0.85;;;;;;;6.68;100.00;99712.97;4996884;28;20390;-86
2023/04/12 04:40:24;;;;;;;4.78;0.90;;;;;;;6.69;100.00;99700.34;4996498;28;20030;-87
2023/04/12 04:42:56;;;;;;;4.90;1.23;;;;;;;6.73;100.00;99706.09;4980597;28;20037;-86
2023/04/12 04:45:25;;;;;;;2.15;0.80;;;;;;;6.68;100.00;99696.78;4996734;28;20021;-86
2023/04/12 04:47:52;;;;;;;5.05;0.85;;;;;;;6.71;100.00;99705.50;4996728;28;20077;-87
2023/04/12 04:50:25;;;;;;;3.38;1.00;;;;;;;6.71;100.00;99700.13;5014619;28;20469;-86
2023/04/12 04:52:51;;;;;;;2.80;0.83;;;;;;;6.72;100.00;99699.06;4996327;28;20052;-86
2023/04/12 04:55:17;;;;;;;5.70;0.93;;;;;;;6.74;100.00;99705.88;5012715;28;20033;-86
2023/04/12 04:57:46;;;;;;;4.30;1.33;;;;;;;6.74;100.00;99692.41;5012766;28;20371;-86
2023/04/12 05:00:12;;;;;;;3.70;1.00;;;;;;;6.73;100.00;99698.88;4980732;28;20033;-86
2023/04/12 05:02:42;;;;;;;2.37;0.93;;;;;;;6.75;100.00;99701.34;4996754;28;20112;-86
2023/04/12 05:05:14;;;;;;;2.17;1.08;;;;;;;6.76;100.00;99695.72;4996242;28;20030;-86
2023/04/12 05:07:42;;;;;;;4.03;1.00;;;;;;;6.78;100.00;99684.72;4996479;28;20072;-86
2023/04/12 05:10:09;;;;;;;3.67;1.00;;;;;;;6.81;100.00;99678.88;5013691;28;20030;-86
2023/04/12 05:12:35;;;;;;;2.05;0.85;;;;;;;6.80;100.00;99685.31;4996638;28;20021;-86
2023/04/12 05:15:00;;;;;;;4.83;1.20;;;;;;;6.80;100.00;99688.00;5013999;28;20108;-86
2023/04/12 05:17:30;;;;;;;2.60;1.00;;;;;;;6.85;100.00;99688.19;4996437;28;20034;-86
2023/04/12 05:19:56;;;;;;;6.55;1.50;;;;;;;6.85;100.00;99686.31;4995946;28;20030;-86
2023/04/12 05:22:21;;;;;;;8.43;1.40;;;;;;;6.85;100.00;99670.13;4980294;28;20036;-86
2023/04/12 05:24:48;;;;;;;2.50;1.20;;;;;;;6.87;100.00;99674.50;4995785;28;20029;-85
2023/04/12 05:27:15;;;;;;;4.78;1.95;;;;;;;6.90;100.00;99687.53;4996340;28;20022;-86
2023/04/12 05:29:43;;;;;;;4.32;1.40;;;;;;;6.92;100.00;99682.75;4996004;28;20041;-86
2023/04/12 05:32:09;;;;;;;4.38;1.20;;;;;;;6.89;100.00;99678.59;4980243;28;20041;-86
2023/04/12 05:34:34;;;;;;;4.43;1.30;;;;;;;6.91;100.00;99675.69;5013179;28;20030;-86
2023/04/12 05:37:00;;;;;;;4.28;0.93;;;;;;;6.91;100.00;99662.19;4996028;28;20022;-86
2023/04/12 05:39:26;;;;;;;3.83;1.37;;;;;;;6.91;100.00;99665.75;5013536;28;20038;-86
2023/04/12 05:41:52;;;;;;;6.18;1.67;;;;;;;6.90;100.00;99668.66;4995703;28;20048;-87
2023/04/12 05:44:20;;;;;;;6.47;1.73;;;;;;;6.91;100.00;99664.91;4995650;28;20121;-87
2023/04/12 05:46:46;;;;;;;3.65;1.20;;;;;;;6.92;100.00;99661.97;5013432;28;20272;-88
2023/04/12 05:49:12;;;;;;;7.85;1.52;;;;;;;6.94;100.00;99668.00;4996202;28;20037;-85
2023/04/12 05:51:37;;;;;;;5.03;1.63;;;;;;;6.98;100.00;99679.16;5013978;28;20436;-85
2023/04/12 05:54:05;;;;;;;6.33;1.40;;;;;;;6.98;100.00;99654.88;5017643;28;20033;-86
2023/04/12 05:56:34;;;;;;;3.15;1.40;;;;;;;7.00;100.00;99656.31;5017236;28;20068;-86
2023/04/12 05:59:00;;;;;;;3.58;1.20;;;;;;;7.02;100.00;99665.00;5017551;28;20501;-88
2023/04/12 06:01:30;;;;;;;5.20;1.27;;;;;;;7.04;100.00;99662.09;4967213;28;20034;-88
2023/04/12 06:03:56;;;;;;;7.13;1.30;;;;;;;7.06;100.00;99653.78;4999499;28;20041;-87
2023/04/12 06:06:22;;;;;;;4.15;1.70;;;;;;;7.08;100.00;99659.78;4999737;28;20386;-87
2023/04/12 06:08:47;;;;;;;4.07;1.77;;;;;;;7.08;100.00;99659.78;4999284;28;20026;-87
2023/04/12 06:11:12;;;;;;;5.67;1.57;;;;;;;7.11;100.00;99662.03;5017296;28;20030;-87
2023/04/12 06:13:38;;;;;;;6.38;1.92;;;;;;;7.09;100.00;99659.56;5015401;28;20029;-87
2023/04/12 06:16:04;;;;;;;6.28;1.75;;;;;;;7.09;100.00;99656.06;4999290;28;20046;-86
2023/04/12 06:18:30;;;;;;;3.88;1.80;;;;;;;7.11;100.00;99654.75;4999147;28;20041;-88
2023/04/12 06:20:56;;;;;;;4.87;1.97;;;;;;;7.13;100.00;99657.25;4998999;28;20022;-88
2023/04/12 06:23:21;;;;;;;4.82;2.05;;;;;;;7.12;100.00;99661.81;5016422;28;20116;-87
2023/04/12 06:25:47;;;;;;;6.20;1.87;;;;;;;7.14;100.00;99657.00;4998831;28;20046;-87
2023/04/12 06:28:13;;;;;;;8.90;2.00;;;;;;;7.17;100.00;99648.47;4998754;28;20041;-87
2023/04/12 06:30:38;;;;;;;8.80;2.43;;;;;;;7.22;100.00;99647.00;4982913;28;20037;-88
2023/04/12 06:33:04;;;;;;;6.07;2.27;;;;;;;7.26;100.00;99642.81;4982856;28;20049;-87
2023/04/12 06:35:29;;;;;;;8.67;2.83;;;;;;;7.27;100.00;99647.16;4999530;28;20045;-86
2023/04/12 06:37:57;;;;;;;6.53;2.60;;;;;;;7.28;100.00;99648.78;5016325;28;20038;-87
2023/04/12 06:40:23;;;;;;;7.70;3.20;;;;;;;7.27;100.00;99661.47;4965940;28;20501;-87
2023/04/12 06:42:51;;;;;;;7.50;3.83;;;;;;;7.26;100.00;99635.53;4998718;28;20116;-87
2023/04/12 06:45:16;;;;;;;6.47;4.75;;;;;;;7.26;100.00;99642.81;4982546;28;20038;-87
2023/04/12 06:47:42;;;;;;;8.63;5.38;;;;;;;7.26;100.00;99638.22;5015323;28;20030;-87
2023/04/12 06:50:07;;;;;;;6.70;4.33;;;;;;;7.27;100.00;99645.28;4998424;28;20064;-87
2023/04/12 06:52:33;;;;;;;11.07;4.45;;;;;;;7.29;100.00;99662.09;5016163;28;20052;-87
2023/04/12 06:54:58;;;;;;;6.70;3.90;;;;;;;7.32;100.00;99655.41;4998660;28;20030;-87
2023/04/12 06:57:24;;;;;;;6.90;4.07;;;;;;;7.32;100.00;99650.84;4981937;28;20053;-88
2023/04/12 06:59:50;;;;;;;6.43;3.40;;;;;;;7.36;100.00;99652.03;5016419;28;20042;-88
2023/04/12 07:02:15;;;;;;;7.18;3.70;;;;;;;7.42;100.00;99655.69;5014471;28;20395;-87
2023/04/12 07:04:41;;;;;;;7.50;4.10;;;;;;;7.48;100.00;99660.19;4998282;28;20030;-88
2023/04/12 07:07:09;;;;;;;11.25;4.40;;;;;;;7.53;100.00;99654.16;4998301;28;20437;-89
2023/04/12 07:09:34;;;;;;;8.83;3.90;;;;;;;7.54;100.00;99645.84;4998139;28;20176;-87
2023/04/12 07:12:01;;;;;;;5.82;3.75;;;;;;;7.60;100.00;99643.28;4998779;28;20109;-87
2023/04/12 07:14:29;;;;;;;7.45;3.90;;;;;;;7.64;100.00;99652.56;4998013;28;20141;-87
2023/04/12 07:16:55;;;;;;;10.20;4.20;;;;;;;7.65;100.00;99655.03;4982545;28;20508;-87
2023/04/12 07:19:20;;;;;;;11.90;3.78;;;;;;;7.66;100.00;99654.00;4998475;28;20034;-87
2023/04/12 07:21:46;;;;;;;8.93;4.77;;;;;;;7.72;100.00;99657.66;4998155;28;20029;-88
2023/04/12 07:24:11;;;;;;;8.80;3.77;;;;;;;7.79;100.00;99649.50;5015479;28;20030;-87
2023/04/12 07:26:36;;;;;;;10.10;3.70;;;;;;;7.75;100.00;99649.13;4998080;28;20194;-87
2023/04/12 07:29:02;;;;;;;8.75;3.53;;;;;;;7.79;100.00;99654.88;4998214;28;20034;-87
2023/04/12 07:31:29;;;;;;;10.38;3.60;;;;;;;7.76;100.00;99650.75;4997643;28;20037;-87
2023/04/12 07:33:55;;;;;;;9.38;3.53;;;;;;;7.79;100.00;99655.69;4997670;28;20038;-87
2023/04/12 07:36:20;;;;;;;10.53;3.43;;;;;;;7.78;100.00;99645.97;4981428;28;20034;-87
2023/04/12 07:38:47;;;;;;;12.05;3.60;;;;;;;7.84;100.00;99641.50;4997918;28;20442;-87
2023/04/12 07:41:17;;;;;;;10.47;3.50;;;;;;;7.94;100.00;99633.69;5015230;28;20026;-87
2023/04/12 07:43:45;;;;;;;9.90;3.70;;;;;;;8.06;100.00;99645.41;4997686;28;20462;-87
2023/04/12 07:46:13;;;;;;;15.10;4.90;;;;;;;8.11;100.00;99647.41;4998068;28;20030;-88
2023/04/12 07:48:42;;;;;;;9.82;3.60;;;;;;;8.12;100.00;99630.16;4981131;28;20120;-87
2023/04/12 07:51:18;;;;;;;13.07;4.05;;;;;;;8.11;100.00;99636.59;4998317;28;20336;-87
2023/04/12 07:53:47;;;;;;;12.77;4.17;;;;;;;8.08;100.00;99634.38;4997902;28;20084;-87
2023/04/12 07:56:13;;;;;;;10.02;3.40;;;;;;;8.07;100.00;99636.25;5013414;28;20030;-87
2023/04/12 07:58:38;;;;;;;12.98;3.40;;;;;;;8.11;100.00;99636.59;4997190;28;20478;-87
2023/04/12 08:01:04;;;;;;;8.90;3.70;;;;;;;8.05;100.00;99642.94;4997026;28;20033;-87
2023/04/12 08:03:30;;;;;;;10.90;3.67;;;;;;;8.00;100.00;99646.31;4997596;28;20292;-87
2023/04/12 08:05:55;;;;;;;9.63;3.72;;;;;;;7.96;100.00;99630.78;4980787;28;20570;-87
2023/04/12 08:08:21;;;;;;;11.27;3.43;;;;;;;7.99;100.00;99628.44;4997167;28;20054;-87
2023/04/12 08:10:47;;;;;;;12.83;3.70;;;;;;;8.05;100.00;99641.03;4997607;28;20113;-87
2023/04/12 08:13:16;;;;;;;10.35;3.72;;;;;;;8.05;100.00;99656.44;4996536;28;20367;-87
2023/04/12 08:15:46;;;;;;;10.82;4.20;;;;;;;8.11;100.00;99649.31;5014696;28;20383;-87
2023/04/12 08:18:11;;;;;;;8.95;4.00;;;;;;;8.15;100.00;99658.56;4997716;28;20030;-87
2023/04/12 08:20:39;;;;;;;13.20;4.10;;;;;;;8.14;100.00;99648.84;4996780;28;20448;-87
2023/04/12 08:23:06;;;;;;;12.52;4.93;;;;;;;8.28;100.00;99649.47;4996934;28;20124;-87
2023/04/12 08:25:35;;;;;;;15.18;4.70;;;;;;;8.48;100.00;99657.34;4997183;28;20038;-87
2023/04/12 08:28:02;;;;;;;15.03;5.00;;;;;;;8.60;100.00;99653.59;4996858;28;20034;-87
2023/04/12 08:30:28;;;;;;;15.10;5.65;;;;;;;8.67;100.00;99656.19;4996770;28;20030;-87
2023/04/12 08:32:54;;;;;;;15.25;5.05;;;;;;;8.80;100.00;99657.03;4996718;28;20500;-87
2023/04/12 08:35:21;;;;;;;19.60;6.32;;;;;;;9.02;100.00;99660.00;4996991;28;20071;-87
2023/04/12 08:37:54;;;;;;;13.10;5.60;;;;;;;9.03;100.00;99654.34;4996937;28;20048;-88
2023/04/12 08:40:23;;;;;;;19.67;6.43;;;;;;;9.10;100.00;99646.94;5013761;28;20042;-88
2023/04/12 08:42:51;;;;;;;17.08;5.70;;;;;;;9.08;100.00;99635.56;4996731;28;20032;-87
2023/04/12 08:45:16;;;;;;;12.90;5.70;;;;;;;8.99;100.00;99628.84;4996436;28;20026;-87
2023/04/12 08:47:43;;;;;;;14.03;6.30;;;;;;;9.13;100.00;99632.13;4980992;28;20100;-88
2023/04/12 08:50:14;;;;;;;16.15;6.28;;;;;;;9.40;100.00;99637.06;4980550;28;20034;-88
2023/04/12 08:52:41;;;;;;;14.95;6.72;;;;;;;9.39;100.00;99641.66;4996897;28;20029;-88
2023/04/12 08:55:11;;;;;;;15.70;6.60;;;;;;;9.43;100.00;99644.69;5014382;28;20112;-87
2023/04/12 08:57:40;;;;;;;13.23;6.22;;;;;;;9.39;100.00;99651.66;5013487;28;20064;-87
2023/04/12 09:00:07;;;;;;;19.88;6.40;;;;;;;9.51;100.00;99640.81;4995936;28;20171;-87
2023/04/12 09:02:35;;;;;;;12.77;5.90;;;;;;;9.68;100.00;99641.72;4995718;28;20120;-87
2023/04/12 09:05:01;;;;;;;13.23;6.63;;;;;;;9.91;100.00;99643.53;4995611;28;20081;-87
2023/04/12 09:07:30;;;;;;;16.85;6.50;;;;;;;10.10;100.00;99633.34;4996152;28;20030;-87
2023/04/12 09:09:57;;;;;;;16.25;5.78;;;;;;;10.06;100.00;99631.38;4979430;28;20045;-87
2023/04/12 09:12:24;;;;;;;15.55;5.07;;;;;;;9.80;100.00;99626.28;4995368;28;20033;-87
2023/04/12 09:15:11;;;;;;;14.85;5.22;;;;;;;9.75;100.00;99622.63;5012586;28;20030;-87
2023/04/12 09:17:37;;;;;;;19.15;6.25;;;;;;;9.82;100.00;99613.28;4995399;28;20033;-87
2023/04/12 09:20:24;;;;;;;26.20;6.05;;;;;;;9.99;100.00;99623.38;4995064;28;20030;-87
2023/04/12 09:22:54;;;;;;;19.73;6.60;;;;;;;9.95;100.00;99617.63;4997094;28;20040;-87
2023/04/12 09:25:46;;;;;;;15.25;5.93;;;;;;;10.00;100.00;99623.13;4995190;28;20410;-87
2023/04/12 09:28:24;;;;;;;27.67;7.07;;;;;;;10.46;100.00;99619.66;5012780;28;20036;-87
2023/04/12 09:30:53;;;;;;;19.83;7.38;;;;;;;10.69;100.00;99611.38;4995095;28;20053;-86
2023/04/12 09:33:31;;;;;;;22.23;6.13;;;;;;;10.94;100.00;99610.13;5012825;28;20026;-86
2023/04/12 09:36:02;;;;;;;16.63;5.53;;;;;;;11.00;100.00;99613.75;4995059;28;20037;-87
2023/04/12 09:38:30;;;;;;;23.02;6.20;;;;;;;11.06;100.00;99613.56;4995903;28;20029;-87
2023/04/12 09:40:55;;;;;;;22.30;5.60;;;;;;;11.17;100.00;99617.25;4978960;28;20065;-87
2023/04/12 09:43:39;;;;;;;22.70;5.47;;;;;;;11.31;100.00;99608.72;4994979;28;20542;-87
2023/04/12 09:46:11;;;;;;;20.02;3.88;;;;;;;11.25;100.00;99602.44;5011334;28;20034;-87
2023/04/12 09:48:38;;;;;;;15.50;4.22;;;;;;;11.03;99.51;99603.22;5013252;28;20080;-87
2023/04/12 09:51:05;;;;;;;20.57;4.33;;;;;;;11.08;98.37;99602.47;4996099;28;20044;-87
2023/04/12 09:53:34;;;;;;;16.27;3.92;;;;;;;11.06;98.80;99604.59;5012158;28;20026;-87
2023/04/12 09:56:02;;;;;;;20.65;4.20;;;;;;;11.06;99.53;99599.19;5012732;28;20033;-87
2023/04/12 09:59:41;;;;;;;24.63;5.10;;;;;;;10.97;100.00;99606.06;5111098;27;20391;-87
2023/04/12 10:02:22;;;;;;;21.67;4.88;;;;;;;10.77;100.00;99598.47;5093438;28;20043;-87
2023/04/12 10:04:48;;;;;;;16.70;4.53;;;;;;;10.72;100.00;99593.78;5110918;28;20027;-87
2023/04/12 10:07:16;;;;;;;17.77;4.85;;;;;;;10.59;100.00;99584.06;5109546;28;20035;-87
2023/04/12 10:09:42;;;;;;;18.75;4.03;;;;;;;10.34;95.82;99588.00;5109781;28;20019;-88
2023/04/12 10:12:08;;;;;;;16.30;3.88;;;;;;;10.18;98.15;99602.31;5110128;28;20024;-87
2023/04/12 10:14:34;;;;;;;18.27;4.63;;;;;;;10.13;99.50;99613.88;5109421;28;20486;-88
2023/04/12 10:17:02;;;;;;;20.08;4.45;;;;;;;10.05;99.61;99616.16;5092817;28;20072;-88
2023/04/12 10:19:30;;;;;;;15.35;3.85;;;;;;;10.10;100.00;99616.28;5109383;28;20020;-88
2023/04/12 10:21:56;;;;;;;17.58;3.63;;;;;;;10.12;100.00;99611.41;5109242;28;20032;-88
2023/04/12 10:24:23;;;;;;;18.38;4.03;;;;;;;10.34;99.53;99615.09;5109149;28;20028;-88
2023/04/12 10:26:50;;;;;;;22.95;3.90;;;;;;;10.39;99.32;99608.13;5109370;28;20036;-87
2023/04/12 10:29:33;;;;;;;21.88;4.25;;;;;;;10.35;97.72;99607.81;5075934;28;20034;-88
2023/04/12 10:32:18;;;;;;;18.02;3.08;;;;;;;10.27;97.96;99617.09;5095205;28;20024;-88
2023/04/12 10:34:44;;;;;;;15.80;3.65;;;;;;;10.14;97.48;99612.00;5109185;28;20442;-88
2023/04/12 10:37:09;;;;;;;22.67;4.00;;;;;;;10.07;95.36;99614.88;5110682;28;20036;-88
2023/04/12 10:39:43;;;;;;;17.87;3.07;;;;;;;10.03;93.24;99621.81;5091971;28;20042;-88
2023/04/12 10:42:28;;;;;;;19.67;2.83;;;;;;;9.84;92.28;99624.72;5108694;28;20034;-88
2023/04/12 10:44:55;;;;;;;17.35;3.53;;;;;;;9.63;93.28;99630.78;5108988;28;20028;-88
2023/04/12 10:47:48;;;;;;;17.60;3.10;;;;;;;8.84;100.00;99642.81;5110156;28;20028;-87
2023/04/12 10:50:23;;;;;;;14.60;2.53;;;;;;;8.32;100.00;99637.16;5110322;28;20479;-87
2023/04/12 10:53:11;;;;;;;15.43;2.63;;;;;;;7.93;100.00;99631.22;5110181;28;20127;-87
2023/04/12 10:55:44;;;;;;;22.08;3.67;;;;;;;7.83;100.00;99624.50;5106229;27;20040;-87
2023/04/12 10:58:50;;;;;;;22.90;4.20;;;;;;;7.87;100.00;99631.09;5108867;28;20474;-87
2023/04/12 11:01:17;;;;;;;20.55;4.15;;;;;;;7.99;100.00;99635.75;5108743;28;20035;-87
2023/04/12 11:04:18;;;;;;;20.55;5.43;;;;;;;7.93;100.00;99647.44;5091776;28;20055;-87
2023/04/12 11:06:51;;;;;;;24.77;6.35;;;;;;;7.97;100.00;99640.53;5108755;28;20024;-87
2023/04/12 11:09:26;;;;;;;21.52;5.97;;;;;;;8.08;100.00;99635.19;5104900;28;20028;-87
2023/04/12 11:12:04;;;;;;;30.45;6.72;;;;;;;8.31;100.00;99636.34;5077720;28;20046;-87
2023/04/12 11:14:44;;;;;;;27.85;6.35;;;;;;;8.52;100.00;99650.38;5095132;28;20368;-87
2023/04/12 11:17:19;;;;;;;28.30;6.95;;;;;;;8.63;100.00;99648.78;5095082;28;20027;-86
2023/04/12 11:19:56;;;;;;;33.17;5.85;;;;;;;8.53;100.00;99652.03;5094556;28;20040;-89
2023/04/12 11:22:24;;;;;;;22.70;4.53;;;;;;;8.47;100.00;99653.78;5094469;28;20032;-86
2023/04/12 11:24:52;;;;;;;19.45;5.28;;;;;;;8.36;100.00;99635.66;5095720;28;20499;-86
2023/04/12 11:27:19;;;;;;;29.92;6.15;;;;;;;8.35;100.00;99637.50;5094838;28;20034;-86
2023/04/12 11:29:53;;;;;;;20.58;5.43;;;;;;;8.50;100.00;99639.81;5094700;28;20043;-86
2023/04/12 11:32:20;;;;;;;24.00;4.68;;;;;;;8.52;100.00;99629.59;5095878;28;20035;-86
2023/04/12 11:34:46;;;;;;;22.42;4.20;;;;;;;8.53;100.00;99631.25;5094532;28;20184;-86
2023/04/12 11:37:12;;;;;;;19.10;4.90;;;;;;;8.83;100.00;99633.06;5077448;28;20075;-86